Time;durP1;ratioP1;P1;durP2;ratioP2;P2;SDS_P1;SDS_P2;PMS_P1;PMS_P2;Temp;Humidity;BMP_temperature;BMP_pressure;BME280_temperature;BME280_humidity;BME280_pressure;Samples;Min_cycle;Max_cycle;Signal;HPM_P1;HPM_P2
2023/12/30 00:00:58;;;;;;;10.52;2.53;;;6.60;99.90;;;;;;5047431;28;20032;-46
2023/12/30 00:03:23;;;;;;;5.40;1.63;;;6.60;99.90;;;;;;5048433;28;20017;-46
2023/12/30 00:05:49;;;;;;;9.63;1.92;;;6.60;99.90;;;;;;5047999;28;20059;-43
2023/12/30 00:08:15;;;;;;;9.65;2.30;;;6.60;99.90;;;;;;5048038;28;20059;-46
2023/12/30 00:10:40;;;;;;;4.35;2.03;;;6.60;99.90;;;;;;5048055;28;20356;-44
2023/12/30 00:13:06;;;;;;;9.07;2.38;;;6.60;99.90;;;;;;5048051;28;20019;-43
2023/12/30 00:15:31;;;;;;;6.18;1.92;;;6.60;99.90;;;;;;5048223;28;20366;-44
2023/12/30 00:17:57;;;;;;;10.68;2.38;;;6.60;99.90;;;;;;5047750;28;20431;-46
2023/12/30 00:20:23;;;;;;;11.32;2.63;;;6.70;99.90;;;;;;5047912;28;20063;-45
2023/12/30 00:22:48;;;;;;;11.45;2.60;;;6.60;99.90;;;;;;5048383;28;20072;-43
2023/12/30 00:25:14;;;;;;;7.18;2.33;;;6.70;99.90;;;;;;5047838;28;20386;-44
2023/12/30 00:27:39;;;;;;;17.98;2.22;;;6.60;99.90;;;;;;5048111;28;20017;-44
2023/12/30 00:30:06;;;;;;;9.93;2.00;;;6.70;99.90;;;;;;5048298;28;20029;-43
2023/12/30 00:32:32;;;;;;;10.13;1.88;;;6.70;99.90;;;;;;5048436;28;20433;-46
2023/12/30 00:34:58;;;;;;;6.35;1.80;;;6.70;99.90;;;;;;5048460;28;20062;-44
2023/12/30 00:37:24;;;;;;;14.07;2.22;;;6.70;99.90;;;;;;5047033;28;20017;-46
2023/12/30 00:39:50;;;;;;;8.80;1.75;;;6.70;99.90;;;;;;5048647;28;20035;-48
2023/12/30 00:42:16;;;;;;;3.90;1.52;;;6.70;99.90;;;;;;5047000;28;20029;-45
2023/12/30 00:44:41;;;;;;;9.95;2.10;;;6.70;99.90;;;;;;5049223;28;20025;-43
2023/12/30 00:47:07;;;;;;;10.55;2.22;;;6.70;99.90;;;;;;5052197;28;20293;-44
2023/12/30 00:49:33;;;;;;;6.97;1.65;;;6.70;99.90;;;;;;5052175;28;20025;-48
2023/12/30 00:51:59;;;;;;;12.02;1.92;;;6.80;99.90;;;;;;5052245;28;20025;-44
2023/12/30 00:54:24;;;;;;;8.65;2.33;;;6.80;99.90;;;;;;5052390;28;20474;-47
2023/12/30 00:56:50;;;;;;;10.18;2.10;;;6.80;99.90;;;;;;5051842;28;20134;-46
2023/12/30 00:59:16;;;;;;;7.22;2.30;;;6.80;99.90;;;;;;5051541;28;20025;-47
2023/12/30 01:01:42;;;;;;;6.93;2.35;;;6.80;99.90;;;;;;5052131;28;20366;-46
2023/12/30 01:04:07;;;;;;;17.13;2.50;;;6.80;99.90;;;;;;5052702;28;20452;-45
2023/12/30 01:06:33;;;;;;;6.78;2.38;;;6.70;99.90;;;;;;5059683;28;20033;-45
2023/12/30 01:09:00;;;;;;;8.38;2.13;;;6.70;99.90;;;;;;5050825;28;20040;-44
2023/12/30 01:11:26;;;;;;;4.88;2.55;;;6.70;99.90;;;;;;5052121;28;20025;-45
2023/12/30 01:13:51;;;;;;;11.15;3.00;;;6.80;99.90;;;;;;5051243;28;20071;-44
2023/12/30 01:16:17;;;;;;;9.68;2.90;;;6.80;99.90;;;;;;5052029;28;20017;-48
2023/12/30 01:18:43;;;;;;;14.80;3.22;;;6.80;99.90;;;;;;5051943;28;20492;-43
2023/12/30 01:21:08;;;;;;;11.07;3.80;;;6.80;99.90;;;;;;5052945;28;20146;-45
2023/12/30 01:23:34;;;;;;;9.82;3.17;;;6.70;99.90;;;;;;5049769;28;20036;-43
2023/12/30 01:26:00;;;;;;;9.40;3.47;;;6.70;99.90;;;;;;5052580;28;20447;-43
2023/12/30 01:28:25;;;;;;;8.77;2.95;;;6.70;99.90;;;;;;5052064;28;20302;-43
2023/12/30 01:30:52;;;;;;;4.53;2.50;;;6.70;99.90;;;;;;5052861;28;20021;-45
2023/12/30 01:33:17;;;;;;;12.40;3.45;;;6.70;99.90;;;;;;5050721;28;20157;-47
2023/12/30 01:35:43;;;;;;;6.80;2.60;;;6.60;99.90;;;;;;5051868;28;20028;-46
2023/12/30 01:38:08;;;;;;;6.22;2.20;;;6.60;99.90;;;;;;5052062;28;20025;-46
2023/12/30 01:40:34;;;;;;;5.60;1.90;;;6.60;99.90;;;;;;5051601;28;20055;-44
2023/12/30 01:43:02;;;;;;;7.15;2.15;;;6.60;99.90;;;;;;5052797;28;20127;-45
2023/12/30 01:45:28;;;;;;;7.07;1.85;;;6.50;99.90;;;;;;5052195;28;20218;-44
2023/12/30 01:47:54;;;;;;;7.70;1.70;;;6.50;99.90;;;;;;5052233;28;20025;-46
2023/12/30 01:50:21;;;;;;;2.25;1.50;;;6.50;99.90;;;;;;5051922;28;20025;-42
2023/12/30 01:52:47;;;;;;;1.95;1.45;;;6.50;99.90;;;;;;5050926;28;20497;-45
2023/12/30 01:55:14;;;;;;;3.88;1.50;;;6.50;99.90;;;;;;5051959;28;20055;-43
2023/12/30 01:57:40;;;;;;;1.48;1.00;;;6.50;99.90;;;;;;5050326;28;20017;-43
2023/12/30 02:00:07;;;;;;;5.72;1.35;;;6.50;99.90;;;;;;5035230;28;20421;-45
2023/12/30 02:02:33;;;;;;;5.05;0.95;;;6.50;99.90;;;;;;5052762;28;20029;-44
2023/12/30 02:04:59;;;;;;;2.03;0.80;;;6.40;99.90;;;;;;5053049;28;20025;-46
2023/12/30 02:07:24;;;;;;;2.80;1.05;;;6.40;99.90;;;;;;5049903;28;20035;-43
2023/12/30 02:09:50;;;;;;;2.33;0.80;;;6.30;99.90;;;;;;5052156;28;20033;-42
2023/12/30 02:12:16;;;;;;;7.47;1.20;;;6.30;99.90;;;;;;5052218;28;20024;-46
2023/12/30 02:14:41;;;;;;;1.38;1.00;;;6.20;99.90;;;;;;5051817;28;20021;-42
2023/12/30 02:17:07;;;;;;;4.13;1.00;;;6.20;99.90;;;;;;5052631;28;20028;-43
2023/12/30 02:19:33;;;;;;;1.27;0.85;;;6.20;99.90;;;;;;5051763;28;20029;-43
2023/12/30 02:21:59;;;;;;;4.38;1.00;;;6.20;99.90;;;;;;5053242;28;20386;-44
2023/12/30 02:24:24;;;;;;;1.85;0.90;;;6.20;99.90;;;;;;5051690;28;20031;-45
2023/12/30 02:26:50;;;;;;;6.28;1.40;;;6.20;99.90;;;;;;5051875;28;20103;-45
2023/12/30 02:29:16;;;;;;;6.22;1.55;;;6.20;99.90;;;;;;5050780;28;20301;-45
2023/12/30 02:31:47;;;;;;;4.68;0.90;;;6.10;99.90;;;;;;5051755;28;20092;-44
2023/12/30 02:34:15;;;;;;;3.55;0.80;;;6.10;99.90;;;;;;5050412;28;20062;-44
2023/12/30 02:36:40;;;;;;;2.58;0.80;;;6.10;99.90;;;;;;5047547;28;20052;-43
2023/12/30 02:39:06;;;;;;;3.03;0.90;;;6.10;99.90;;;;;;5048458;28;20052;-45
2023/12/30 02:41:31;;;;;;;3.40;0.98;;;6.10;99.90;;;;;;5049195;28;20033;-45
2023/12/30 02:44:00;;;;;;;3.83;0.98;;;6.10;99.90;;;;;;5047391;28;20414;-46
2023/12/30 02:46:26;;;;;;;3.03;0.70;;;6.10;99.90;;;;;;5048406;28;20100;-47
2023/12/30 02:48:51;;;;;;;4.20;0.90;;;6.00;99.90;;;;;;5047903;28;20086;-43
2023/12/30 02:51:18;;;;;;;5.20;1.00;;;6.00;99.90;;;;;;5048173;28;20028;-44
2023/12/30 02:53:44;;;;;;;2.20;0.85;;;5.90;99.90;;;;;;5049805;28;20021;-43
2023/12/30 02:56:27;;;;;;;2.83;0.80;;;6.00;99.90;;;;;;5049991;28;20066;-44
2023/12/30 02:59:01;;;;;;;1.88;0.70;;;5.90;99.90;;;;;;5053435;28;20025;-45
2023/12/30 03:01:28;;;;;;;1.95;0.82;;;5.90;99.90;;;;;;5046250;28;20478;-44
2023/12/30 03:03:56;;;;;;;5.07;1.02;;;5.90;99.90;;;;;;5053187;28;20656;-45
2023/12/30 03:06:22;;;;;;;4.10;1.30;;;5.90;99.90;;;;;;5051200;28;20107;-43
2023/12/30 03:08:49;;;;;;;3.05;1.08;;;5.90;99.90;;;;;;5052395;28;20026;-46
2023/12/30 03:11:15;;;;;;;5.43;0.82;;;5.80;99.90;;;;;;5053087;28;20017;-45
2023/12/30 03:13:41;;;;;;;2.53;0.75;;;5.80;99.90;;;;;;5050492;28;20066;-44
2023/12/30 03:16:07;;;;;;;1.95;0.80;;;5.80;99.90;;;;;;5053222;28;20052;-46
2023/12/30 03:18:33;;;;;;;7.00;1.25;;;5.80;99.90;;;;;;5049841;28;20064;-45
2023/12/30 03:20:58;;;;;;;5.82;1.20;;;5.80;99.90;;;;;;5052024;28;20025;-44
2023/12/30 03:23:24;;;;;;;1.73;1.02;;;5.90;99.90;;;;;;5051798;28;20331;-43
2023/12/30 03:25:50;;;;;;;3.72;1.00;;;6.10;99.90;;;;;;5052304;28;20044;-43
2023/12/30 03:28:17;;;;;;;2.42;0.88;;;6.10;99.90;;;;;;5052320;28;20064;-45
2023/12/30 03:30:42;;;;;;;4.00;1.30;;;6.20;99.90;;;;;;5051841;28;20017;-44
2023/12/30 03:33:08;;;;;;;3.45;1.30;;;6.20;99.90;;;;;;5052403;28;20071;-45
2023/12/30 03:35:37;;;;;;;1.95;0.80;;;6.30;99.90;;;;;;5050408;28;20143;-43
2023/12/30 03:38:03;;;;;;;5.57;1.00;;;6.40;99.90;;;;;;5051788;28;20033;-45
2023/12/30 03:40:28;;;;;;;4.40;1.67;;;6.50;99.90;;;;;;5050472;28;20029;-46
2023/12/30 03:42:54;;;;;;;6.18;1.00;;;6.50;99.90;;;;;;5053234;28;20104;-45
2023/12/30 03:45:19;;;;;;;3.80;1.25;;;6.50;99.90;;;;;;5052524;28;20741;-47
2023/12/30 03:47:45;;;;;;;3.33;1.10;;;6.50;99.90;;;;;;5051540;28;20053;-45
2023/12/30 03:50:11;;;;;;;3.47;1.88;;;6.60;99.90;;;;;;5053667;28;20032;-44
2023/12/30 03:52:37;;;;;;;4.55;1.48;;;6.60;99.90;;;;;;5052250;28;20067;-48
2023/12/30 03:55:03;;;;;;;3.28;1.20;;;6.60;99.90;;;;;;5054433;28;20456;-48
2023/12/30 03:57:28;;;;;;;6.00;1.17;;;6.60;99.90;;;;;;5051825;28;20017;-43
2023/12/30 03:59:54;;;;;;;3.97;1.27;;;6.70;99.90;;;;;;5053531;28;20051;-47
2023/12/30 04:02:21;;;;;;;8.05;1.58;;;6.70;99.90;;;;;;5052997;28;20466;-43
2023/12/30 04:04:49;;;;;;;6.50;1.52;;;6.70;99.90;;;;;;5052503;28;20115;-43
2023/12/30 04:07:15;;;;;;;7.18;1.85;;;6.70;99.90;;;;;;5053024;28;20120;-44
2023/12/30 04:09:40;;;;;;;3.38;1.10;;;6.70;99.90;;;;;;5052017;28;20103;-43
2023/12/30 04:12:06;;;;;;;4.10;1.23;;;6.70;99.90;;;;;;5054229;28;20051;-44
2023/12/30 04:14:32;;;;;;;5.80;1.35;;;6.70;99.90;;;;;;5052037;28;20112;-47
2023/12/30 04:16:57;;;;;;;8.82;2.72;;;6.70;99.90;;;;;;5053466;28;20413;-44
2023/12/30 04:19:24;;;;;;;9.93;1.45;;;6.70;99.90;;;;;;5056221;28;20050;-44
2023/12/30 04:21:50;;;;;;;8.18;1.58;;;6.70;99.90;;;;;;5055329;28;20486;-44
2023/12/30 04:24:15;;;;;;;5.60;1.50;;;6.60;99.90;;;;;;5057644;28;20028;-42
2023/12/30 04:26:43;;;;;;;5.40;1.33;;;6.60;99.90;;;;;;5055645;28;20043;-43
2023/12/30 04:29:09;;;;;;;5.30;1.40;;;6.70;99.90;;;;;;5056746;28;20032;-43
2023/12/30 04:31:35;;;;;;;3.80;1.30;;;6.70;99.90;;;;;;5056377;28;20434;-43
2023/12/30 04:34:00;;;;;;;3.08;1.08;;;6.70;99.90;;;;;;5058344;28;20030;-43
2023/12/30 04:36:26;;;;;;;4.20;1.30;;;6.70;99.90;;;;;;5056289;28;20033;-43
2023/12/30 04:38:52;;;;;;;6.35;1.05;;;6.80;99.90;;;;;;5055441;28;20028;-43
2023/12/30 04:41:17;;;;;;;3.30;1.23;;;6.70;99.90;;;;;;5057663;28;20448;-43
2023/12/30 04:43:43;;;;;;;7.57;1.52;;;6.70;99.90;;;;;;5056195;28;20207;-43
2023/12/30 04:46:11;;;;;;;4.78;1.27;;;6.70;99.90;;;;;;5054270;28;20051;-43
2023/12/30 04:48:37;;;;;;;9.60;1.23;;;6.70;99.90;;;;;;5050040;28;20436;-45
2023/12/30 04:51:03;;;;;;;9.32;1.90;;;6.70;99.90;;;;;;5054523;28;20025;-45
2023/12/30 04:53:28;;;;;;;8.30;1.55;;;6.70;99.90;;;;;;5052799;28;20099;-45
2023/12/30 04:55:54;;;;;;;5.32;1.30;;;6.60;99.90;;;;;;5053595;28;20020;-45
2023/12/30 04:58:20;;;;;;;7.35;1.40;;;6.60;99.90;;;;;;5051992;28;20031;-45
2023/12/30 05:00:46;;;;;;;9.80;1.30;;;6.60;99.90;;;;;;5052705;28;20028;-44
2023/12/30 05:03:12;;;;;;;10.57;2.05;;;6.60;99.90;;;;;;5053467;28;20231;-45
2023/12/30 05:05:38;;;;;;;4.18;1.20;;;6.60;99.90;;;;;;5052216;28;20025;-45
2023/12/30 05:08:04;;;;;;;9.55;1.77;;;6.50;99.90;;;;;;5056579;28;20024;-45
2023/12/30 05:10:29;;;;;;;8.52;1.45;;;6.50;99.90;;;;;;5056162;28;20112;-45
2023/12/30 05:12:55;;;;;;;7.97;1.48;;;6.50;99.90;;;;;;5056668;28;20025;-42
2023/12/30 05:15:21;;;;;;;5.90;1.33;;;6.40;99.90;;;;;;5053121;28;20021;-44
2023/12/30 05:17:46;;;;;;;4.68;1.45;;;6.40;99.90;;;;;;5054367;28;20048;-44
2023/12/30 05:20:12;;;;;;;5.22;1.00;;;6.40;99.90;;;;;;5059058;28;20473;-45
2023/12/30 05:22:40;;;;;;;8.27;1.23;;;6.40;99.90;;;;;;5055725;28;20490;-45
2023/12/30 05:25:06;;;;;;;6.47;1.33;;;6.40;99.90;;;;;;5057140;28;20025;-44
2023/12/30 05:27:32;;;;;;;7.50;1.58;;;6.40;99.90;;;;;;5055528;28;20391;-47
2023/12/30 05:29:57;;;;;;;6.28;1.48;;;6.40;99.90;;;;;;5056978;28;20108;-44
2023/12/30 05:32:23;;;;;;;7.32;1.10;;;6.40;99.90;;;;;;5057332;28;20484;-44
2023/12/30 05:34:48;;;;;;;8.95;1.60;;;6.40;99.90;;;;;;5056615;28;20103;-44
2023/12/30 05:37:14;;;;;;;8.18;1.50;;;6.40;99.90;;;;;;5057941;28;20020;-44
2023/12/30 05:39:40;;;;;;;4.25;1.35;;;6.40;99.90;;;;;;5054609;28;20628;-43
2023/12/30 05:42:06;;;;;;;7.75;1.60;;;6.40;99.90;;;;;;5058926;28;20059;-44
2023/12/30 05:44:32;;;;;;;4.68;1.40;;;6.40;99.90;;;;;;5056152;28;20494;-43
2023/12/30 05:46:58;;;;;;;6.90;1.77;;;6.40;99.90;;;;;;5053524;28;20025;-44
2023/12/30 05:49:23;;;;;;;10.65;1.50;;;6.40;99.90;;;;;;5048817;28;20025;-44
2023/12/30 05:51:50;;;;;;;6.28;1.33;;;6.40;99.90;;;;;;5050950;28;21345;-44
2023/12/30 05:54:16;;;;;;;6.00;1.20;;;6.40;99.90;;;;;;5046223;28;20532;-47
2023/12/30 05:56:41;;;;;;;7.97;1.90;;;6.40;99.90;;;;;;5055749;28;20528;-44
2023/12/30 05:59:07;;;;;;;9.93;1.60;;;6.40;99.90;;;;;;5058909;28;20048;-45
2023/12/30 06:01:33;;;;;;;5.57;1.10;;;6.40;99.90;;;;;;5055507;28;20080;-44
2023/12/30 06:03:58;;;;;;;5.80;1.60;;;6.40;99.90;;;;;;5058190;28;20021;-45
2023/12/30 06:06:24;;;;;;;6.25;1.30;;;6.50;99.90;;;;;;5057415;28;20032;-45
2023/12/30 06:08:49;;;;;;;4.88;1.38;;;6.50;99.90;;;;;;5056150;28;20021;-47
2023/12/30 06:11:15;;;;;;;5.60;1.65;;;6.50;99.90;;;;;;5057554;28;20103;-44
2023/12/30 06:13:41;;;;;;;8.32;1.70;;;6.50;99.90;;;;;;5056217;28;20017;-43
2023/12/30 06:16:10;;;;;;;5.85;1.35;;;6.50;99.90;;;;;;5048583;28;20021;-43
2023/12/30 06:18:36;;;;;;;12.05;1.67;;;6.50;99.90;;;;;;5048189;28;20103;-43
2023/12/30 06:21:04;;;;;;;5.53;1.85;;;6.50;99.90;;;;;;5054609;28;20037;-43
2023/12/30 06:23:31;;;;;;;13.13;2.03;;;6.50;99.90;;;;;;5058690;28;20035;-44
2023/12/30 06:25:57;;;;;;;5.78;1.48;;;6.50;99.90;;;;;;5062093;28;20142;-43
2023/12/30 06:28:26;;;;;;;10.95;2.53;;;6.40;99.90;;;;;;5061884;28;20548;-44
2023/12/30 06:30:52;;;;;;;15.77;2.03;;;6.40;99.90;;;;;;5067197;28;20019;-45
2023/12/30 06:33:19;;;;;;;4.15;1.48;;;6.40;99.90;;;;;;5062419;28;20081;-44
2023/12/30 06:35:45;;;;;;;8.35;3.13;;;6.40;99.90;;;;;;5045707;28;20504;-44
2023/12/30 06:38:11;;;;;;;6.50;1.73;;;6.40;99.90;;;;;;5066375;28;20017;-42
2023/12/30 06:40:36;;;;;;;6.05;1.75;;;6.40;99.90;;;;;;5064632;28;20070;-43
2023/12/30 06:43:02;;;;;;;12.65;2.08;;;6.40;99.90;;;;;;5056048;28;20092;-43
2023/12/30 06:45:28;;;;;;;6.43;1.88;;;6.40;99.90;;;;;;5055009;28;20016;-44
2023/12/30 06:47:54;;;;;;;6.85;1.70;;;6.40;99.90;;;;;;5054909;28;20139;-43
2023/12/30 06:50:22;;;;;;;9.35;1.92;;;6.40;99.90;;;;;;5053067;28;20473;-44
2023/12/30 06:52:48;;;;;;;10.60;1.60;;;6.40;99.90;;;;;;5050398;28;20020;-42
2023/12/30 06:55:14;;;;;;;5.20;2.10;;;6.40;99.90;;;;;;5051096;28;20020;-42
2023/12/30 06:57:41;;;;;;;8.05;1.52;;;6.50;99.90;;;;;;5051293;28;20029;-43
2023/12/30 07:00:07;;;;;;;5.78;1.80;;;6.50;99.90;;;;;;5058913;28;20056;-43
2023/12/30 07:02:34;;;;;;;9.18;2.67;;;6.50;99.90;;;;;;5055894;28;20117;-42
2023/12/30 07:04:59;;;;;;;10.40;1.90;;;6.50;99.90;;;;;;5057906;28;20052;-43
2023/12/30 07:07:25;;;;;;;9.50;1.95;;;6.50;99.90;;;;;;5053011;28;20071;-44
2023/12/30 07:09:52;;;;;;;11.88;2.55;;;6.50;99.90;;;;;;5055678;28;20086;-45
2023/12/30 07:12:17;;;;;;;8.88;2.15;;;6.50;99.90;;;;;;5059352;28;20020;-44
2023/12/30 07:14:43;;;;;;;12.93;2.03;;;6.50;99.90;;;;;;5056289;28;20021;-42
2023/12/30 07:17:08;;;;;;;6.05;2.13;;;6.50;99.90;;;;;;5057518;28;20072;-45
2023/12/30 07:19:34;;;;;;;6.20;1.95;;;6.50;99.90;;;;;;5056880;28;20448;-44
2023/12/30 07:22:00;;;;;;;10.18;2.15;;;6.50;99.90;;;;;;5057089;28;20029;-46
2023/12/30 07:24:26;;;;;;;7.30;2.40;;;6.50;99.90;;;;;;5058385;28;20119;-44
2023/12/30 07:26:52;;;;;;;15.10;2.50;;;6.50;99.90;;;;;;5054796;28;20074;-44
2023/12/30 07:29:17;;;;;;;7.68;2.17;;;6.50;99.90;;;;;;5052691;28;20095;-43
2023/12/30 07:31:43;;;;;;;11.23;2.22;;;6.50;99.90;;;;;;5051663;28;20457;-43
2023/12/30 07:34:10;;;;;;;14.43;2.40;;;6.50;99.90;;;;;;5057240;28;20103;-44
2023/12/30 07:36:36;;;;;;;15.70;2.20;;;6.50;99.90;;;;;;5057329;28;20485;-43
2023/12/30 07:39:01;;;;;;;13.65;2.95;;;6.40;99.90;;;;;;5057165;28;20032;-43
2023/12/30 07:41:27;;;;;;;11.80;2.90;;;6.40;99.90;;;;;;5053549;28;20025;-43
2023/12/30 07:43:52;;;;;;;8.90;2.20;;;6.40;99.90;;;;;;5049849;28;20253;-43
2023/12/30 07:46:18;;;;;;;8.38;2.13;;;6.30;99.90;;;;;;5054990;28;20028;-42
2023/12/30 07:48:44;;;;;;;12.15;2.92;;;6.30;99.90;;;;;;5056291;28;20017;-44
2023/12/30 07:51:10;;;;;;;13.68;2.40;;;6.30;99.90;;;;;;5059873;28;20374;-44
2023/12/30 07:53:35;;;;;;;8.52;2.50;;;6.30;99.90;;;;;;5060315;28;20017;-46
2023/12/30 07:56:02;;;;;;;11.80;2.58;;;6.30;99.90;;;;;;5063419;28;20359;-42
2023/12/30 07:58:28;;;;;;;10.55;2.47;;;6.30;99.90;;;;;;5061597;28;20110;-44
2023/12/30 08:00:53;;;;;;;14.40;2.63;;;6.30;99.90;;;;;;5062288;28;20053;-43
2023/12/30 08:03:19;;;;;;;11.05;2.90;;;6.30;99.90;;;;;;5063141;28;20230;-42
2023/12/30 08:05:45;;;;;;;16.40;2.65;;;6.30;99.90;;;;;;5057957;28;20063;-43
2023/12/30 08:08:13;;;;;;;15.00;2.30;;;6.40;99.90;;;;;;5055786;28;20025;-43
2023/12/30 08:10:38;;;;;;;6.07;3.38;;;6.40;99.90;;;;;;5061078;28;20013;-43
2023/12/30 08:13:04;;;;;;;15.10;2.28;;;6.40;99.90;;;;;;5058398;28;20017;-43
2023/12/30 08:15:29;;;;;;;15.10;2.50;;;6.40;99.90;;;;;;5056067;28;20458;-42
2023/12/30 08:17:55;;;;;;;10.35;2.80;;;6.50;99.90;;;;;;5056703;28;20037;-43
2023/12/30 08:20:21;;;;;;;14.55;3.75;;;6.50;99.90;;;;;;5054337;28;20020;-42
2023/12/30 08:22:46;;;;;;;9.43;2.08;;;6.50;99.90;;;;;;5053214;28;20459;-43
2023/12/30 08:25:13;;;;;;;14.00;2.60;;;6.60;99.90;;;;;;5058678;28;20090;-43
2023/12/30 08:27:39;;;;;;;5.70;2.60;;;6.60;99.90;;;;;;5061255;28;20052;-46
2023/12/30 08:30:05;;;;;;;12.55;2.58;;;6.60;99.90;;;;;;5063445;28;20408;-46
2023/12/30 08:32:31;;;;;;;10.73;2.70;;;6.70;99.90;;;;;;5062567;28;20367;-44
2023/12/30 08:34:57;;;;;;;8.32;2.50;;;6.70;99.90;;;;;;5062026;28;20032;-43
2023/12/30 08:37:23;;;;;;;9.77;2.58;;;6.80;99.90;;;;;;5063456;28;20188;-46
2023/12/30 08:39:49;;;;;;;13.05;3.47;;;6.80;99.90;;;;;;5061233;28;20413;-47
2023/12/30 08:42:15;;;;;;;7.20;2.30;;;6.80;99.90;;;;;;5064325;28;20024;-44
2023/12/30 08:44:43;;;;;;;9.63;2.20;;;6.90;99.90;;;;;;5061360;28;20043;-43
2023/12/30 08:47:10;;;;;;;7.13;2.25;;;6.90;99.90;;;;;;5064009;28;20021;-43
2023/12/30 08:49:36;;;;;;;10.95;2.45;;;7.00;99.90;;;;;;5061037;28;20506;-46
2023/12/30 08:52:03;;;;;;;7.00;2.60;;;7.00;99.90;;;;;;5062923;28;20366;-45
2023/12/30 08:54:29;;;;;;;7.05;2.70;;;7.10;99.90;;;;;;5063010;28;20028;-45
2023/12/30 08:56:54;;;;;;;8.13;2.60;;;7.10;99.90;;;;;;5061443;28;20020;-44
2023/12/30 08:59:21;;;;;;;10.38;2.70;;;7.20;99.90;;;;;;5063838;28;20020;-44
2023/12/30 09:01:48;;;;;;;14.30;2.80;;;7.20;99.90;;;;;;5060989;28;20392;-45
2023/12/30 09:04:13;;;;;;;14.95;3.05;;;7.30;99.90;;;;;;5061668;28;20036;-47
2023/12/30 09:06:39;;;;;;;12.93;2.65;;;7.20;99.90;;;;;;5060818;28;20040;-43
2023/12/30 09:09:05;;;;;;;9.35;2.60;;;7.30;99.90;;;;;;5063114;28;20474;-47
2023/12/30 09:11:38;;;;;;;8.35;2.80;;;7.30;99.90;;;;;;5063620;28;20016;-43
2023/12/30 09:14:05;;;;;;;10.55;2.88;;;7.30;99.90;;;;;;5063477;28;20044;-46
2023/12/30 09:16:32;;;;;;;15.10;2.83;;;7.40;99.90;;;;;;5063139;28;20434;-47
2023/12/30 09:18:57;;;;;;;9.05;3.40;;;7.40;99.90;;;;;;5060920;28;20021;-45
2023/12/30 09:21:23;;;;;;;16.65;3.33;;;7.50;99.90;;;;;;5062856;28;20519;-43
2023/12/30 09:23:50;;;;;;;10.32;3.10;;;7.60;99.90;;;;;;5062156;28;20033;-43
2023/12/30 09:26:16;;;;;;;7.35;3.35;;;7.60;99.90;;;;;;5060485;28;20082;-42
2023/12/30 09:28:42;;;;;;;16.67;3.00;;;7.60;99.90;;;;;;5058667;28;20032;-43
2023/12/30 09:31:08;;;;;;;11.82;2.72;;;7.60;99.90;;;;;;5063815;28;20024;-44
2023/12/30 09:33:33;;;;;;;10.52;2.70;;;7.60;99.90;;;;;;5063079;28;20393;-44
2023/12/30 09:36:00;;;;;;;7.68;2.50;;;7.60;99.90;;;;;;5062989;28;20116;-45
2023/12/30 09:38:26;;;;;;;8.90;2.35;;;7.60;99.90;;;;;;5063881;28;20059;-44
2023/12/30 09:40:52;;;;;;;12.25;3.30;;;7.60;99.90;;;;;;5061547;28;20079;-44
2023/12/30 09:43:24;;;;;;;15.48;3.33;;;7.60;99.90;;;;;;5064307;28;20099;-43
2023/12/30 09:45:51;;;;;;;10.15;2.65;;;7.60;99.90;;;;;;5060217;28;20021;-43
2023/12/30 09:48:20;;;;;;;7.63;2.70;;;7.70;99.90;;;;;;5063888;28;20111;-45
2023/12/30 09:50:50;;;;;;;11.52;3.05;;;7.80;99.90;;;;;;5055610;28;20087;-46
2023/12/30 09:53:16;;;;;;;9.98;2.90;;;7.80;99.90;;;;;;5064153;28;20111;-47
2023/12/30 09:55:45;;;;;;;10.15;2.15;;;7.80;99.90;;;;;;5061931;28;20070;-46
2023/12/30 09:58:12;;;;;;;10.70;3.63;;;7.80;99.90;;;;;;5052840;28;20017;-44
2023/12/30 10:00:42;;;;;;;16.25;3.92;;;7.80;99.90;;;;;;5061610;28;20017;-48
2023/12/30 10:03:09;;;;;;;8.13;2.45;;;7.80;99.90;;;;;;5064065;28;20095;-45
2023/12/30 10:05:34;;;;;;;9.00;3.50;;;7.80;99.90;;;;;;5063183;28;20035;-43
2023/12/30 10:08:03;;;;;;;11.23;2.80;;;7.90;99.90;;;;;;5059683;28;20017;-44
2023/12/30 10:10:43;;;;;;;8.27;3.42;;;8.00;99.90;;;;;;5059792;28;20473;-45
2023/12/30 10:13:10;;;;;;;16.23;3.22;;;8.00;99.90;;;;;;5062996;28;20044;-46
2023/12/30 10:15:35;;;;;;;16.15;3.38;;;8.00;99.90;;;;;;5057230;28;20064;-44
2023/12/30 10:18:03;;;;;;;11.38;2.80;;;8.00;99.90;;;;;;5062945;28;20439;-47
2023/12/30 10:20:29;;;;;;;10.98;2.90;;;8.10;99.90;;;;;;5064629;28;20289;-44
2023/12/30 10:22:56;;;;;;;11.15;2.80;;;8.10;99.90;;;;;;5060925;28;20021;-46
2023/12/30 10:25:21;;;;;;;9.32;2.40;;;8.10;99.90;;;;;;5064380;28;20034;-47
2023/12/30 10:27:48;;;;;;;8.77;2.47;;;8.10;99.90;;;;;;5061922;28;20029;-48
2023/12/30 10:30:19;;;;;;;9.02;2.30;;;8.20;99.90;;;;;;5054977;28;20412;-45
2023/12/30 10:32:46;;;;;;;16.75;2.80;;;8.30;99.90;;;;;;5061185;28;20048;-46
2023/12/30 10:35:12;;;;;;;9.52;3.67;;;8.40;99.90;;;;;;5051124;28;20012;-46
2023/12/30 10:37:39;;;;;;;8.55;2.53;;;8.40;99.90;;;;;;5056640;28;20078;-44
2023/12/30 10:40:07;;;;;;;9.45;2.88;;;8.50;99.90;;;;;;5063477;28;20486;-45
2023/12/30 10:42:33;;;;;;;5.88;2.05;;;8.50;99.90;;;;;;5064091;28;20043;-43
2023/12/30 10:44:58;;;;;;;14.63;2.92;;;8.50;99.90;;;;;;5062681;28;20021;-45
2023/12/30 10:47:26;;;;;;;2.92;1.83;;;8.50;99.90;;;;;;5063807;28;20021;-47
2023/12/30 10:49:54;;;;;;;10.45;2.60;;;8.50;99.90;;;;;;5062130;28;20036;-43
2023/12/30 10:52:24;;;;;;;10.43;2.33;;;8.50;99.90;;;;;;5062681;28;20025;-44
2023/12/30 10:55:08;;;;;;;7.53;2.47;;;8.60;99.90;;;;;;5062178;28;20078;-46
2023/12/30 10:57:36;;;;;;;10.15;2.38;;;8.60;99.90;;;;;;5060242;28;20025;-49
2023/12/30 11:00:09;;;;;;;6.10;2.10;;;8.60;99.90;;;;;;5051442;28;20518;-43
2023/12/30 11:02:38;;;;;;;8.27;2.70;;;8.70;99.90;;;;;;5051044;28;20021;-43
2023/12/30 11:07:58;;;;;;;7.75;2.63;;;8.70;99.90;;;;;;5052128;28;20075;-43
2023/12/30 11:10:26;;;;;;;10.30;2.40;;;8.80;99.90;;;;;;5054168;28;20036;-43
2023/12/30 11:12:53;;;;;;;11.30;3.17;;;8.80;99.90;;;;;;5057355;28;20032;-42
2023/12/30 11:15:26;;;;;;;10.52;3.08;;;8.90;99.90;;;;;;5056723;28;20067;-42
2023/12/30 11:17:52;;;;;;;11.40;2.88;;;9.00;99.90;;;;;;5057281;28;20343;-43
2023/12/30 11:20:31;;;;;;;18.25;2.65;;;9.00;99.90;;;;;;5056766;28;20111;-44
2023/12/30 11:23:02;;;;;;;5.87;2.33;;;9.10;99.90;;;;;;5056284;28;20107;-42
2023/12/30 11:25:46;;;;;;;9.38;2.80;;;9.10;99.90;;;;;;5054816;28;20039;-43
2023/12/30 11:28:21;;;;;;;12.13;2.25;;;9.20;99.90;;;;;;5053351;28;20020;-43
2023/12/30 11:31:00;;;;;;;7.05;2.45;;;9.20;99.90;;;;;;5063039;28;20095;-43
2023/12/30 11:33:26;;;;;;;7.75;2.10;;;9.30;99.90;;;;;;5063123;28;20074;-45
2023/12/30 11:35:55;;;;;;;10.98;2.13;;;9.20;99.90;;;;;;5063170;28;20032;-45
2023/12/30 11:38:24;;;;;;;7.95;1.80;;;9.30;99.90;;;;;;5062989;28;20021;-44
2023/12/30 11:40:52;;;;;;;7.28;2.05;;;9.40;99.90;;;;;;5060286;28;20483;-44
2023/12/30 11:43:20;;;;;;;10.15;2.08;;;9.40;99.90;;;;;;5058540;28;20028;-43
2023/12/30 11:45:45;;;;;;;8.45;2.42;;;9.50;99.90;;;;;;5052336;28;20108;-47
2023/12/30 11:48:11;;;;;;;6.50;2.17;;;9.50;99.90;;;;;;5055843;28;20105;-45
2023/12/30 11:50:37;;;;;;;10.88;2.50;;;9.60;99.90;;;;;;5049209;28;20498;-45
2023/12/30 11:53:03;;;;;;;8.10;2.20;;;9.60;99.90;;;;;;5063661;28;20033;-42
2023/12/30 11:55:29;;;;;;;6.00;2.33;;;9.50;99.90;;;;;;5064759;28;20031;-43
2023/12/30 11:57:56;;;;;;;12.57;3.60;;;9.60;99.90;;;;;;5063235;28;20407;-43
2023/12/30 12:00:24;;;;;;;13.27;3.00;;;9.60;99.90;;;;;;5063808;28;20430;-44
2023/12/30 12:02:50;;;;;;;12.02;2.30;;;9.50;99.90;;;;;;5063348;28;20025;-43
2023/12/30 12:05:16;;;;;;;6.60;2.15;;;9.50;99.90;;;;;;5064781;28;20370;-43
2023/12/30 12:07:41;;;;;;;9.18;2.47;;;9.50;99.90;;;;;;5064085;28;20053;-43
2023/12/30 12:10:08;;;;;;;11.85;2.33;;;9.40;99.90;;;;;;5064656;28;20470;-43
2023/12/30 12:12:35;;;;;;;6.38;2.33;;;9.30;99.90;;;;;;5064998;28;20020;-43
2023/12/30 12:15:01;;;;;;;7.53;2.42;;;9.20;99.90;;;;;;5063725;28;20482;-44
2023/12/30 12:17:27;;;;;;;13.93;3.00;;;9.20;99.90;;;;;;5063542;28;20020;-42
2023/12/30 12:19:52;;;;;;;6.95;2.83;;;9.20;99.90;;;;;;5063754;28;20195;-42
2023/12/30 12:22:18;;;;;;;15.25;3.15;;;9.10;99.90;;;;;;5065233;28;20104;-43
2023/12/30 12:24:44;;;;;;;7.75;3.05;;;9.20;99.90;;;;;;5061316;28;20123;-43
2023/12/30 12:27:10;;;;;;;12.50;2.92;;;9.10;99.90;;;;;;5064777;28;20024;-44
2023/12/30 12:29:45;;;;;;;8.32;2.58;;;9.10;99.90;;;;;;5062434;28;20037;-44
2023/12/30 12:32:13;;;;;;;9.75;2.40;;;9.10;99.90;;;;;;5049107;28;20296;-43
2023/12/30 12:34:41;;;;;;;12.05;2.92;;;9.20;99.90;;;;;;5063026;28;20187;-42
2023/12/30 12:37:08;;;;;;;12.23;2.65;;;9.10;99.90;;;;;;5060648;28;20016;-42
2023/12/30 12:39:33;;;;;;;12.43;2.40;;;9.00;99.90;;;;;;5065219;28;20036;-42
2023/12/30 12:41:59;;;;;;;8.32;2.03;;;9.00;99.90;;;;;;5067829;28;20397;-42
2023/12/30 12:44:24;;;;;;;8.27;2.53;;;9.00;99.90;;;;;;5069077;28;20099;-43
2023/12/30 12:46:50;;;;;;;10.55;2.78;;;9.00;99.90;;;;;;5067849;28;20389;-43
2023/12/30 12:49:19;;;;;;;10.30;2.47;;;9.10;99.90;;;;;;5057461;28;20013;-43
2023/12/30 12:51:45;;;;;;;8.73;2.03;;;9.10;99.90;;;;;;5059247;28;20024;-45